createdAt,value
2019-04-25T00:02:38.797Z,99.90
2019-04-25T00:05:23.979Z,99.90
2019-04-25T00:08:09.479Z,99.90
2019-04-25T00:10:54.927Z,99.90
2019-04-25T00:13:41.916Z,99.90
2019-04-25T00:16:29.209Z,99.90
2019-04-25T00:19:14.367Z,99.90
2019-04-25T00:22:04.778Z,99.90
2019-04-25T00:25:17.856Z,99.90
2019-04-25T00:28:02.771Z,99.90
2019-04-25T00:30:48.342Z,99.90
2019-04-25T00:33:33.582Z,99.90
2019-04-25T00:36:18.955Z,99.90
2019-04-25T00:39:05.493Z,99.90
2019-04-25T00:41:51.978Z,99.90
2019-04-25T00:44:37.557Z,99.90
2019-04-25T00:47:23.235Z,99.90
2019-04-25T00:50:08.078Z,99.90
2019-04-25T00:52:53.729Z,99.90
2019-04-25T00:55:41.322Z,99.90
2019-04-25T00:58:38.511Z,99.90
2019-04-25T01:01:31.755Z,99.90
2019-04-25T01:04:18.062Z,99.90
2019-04-25T01:07:03.247Z,99.90
2019-04-25T01:09:48.275Z,99.90
2019-04-25T01:12:33.674Z,99.90
2019-04-25T01:15:19.355Z,99.90
2019-04-25T01:18:04.934Z,99.90
2019-04-25T01:20:51.162Z,99.90
2019-04-25T01:23:36.825Z,99.90
2019-04-25T01:26:23.968Z,99.90
2019-04-25T01:29:10.634Z,99.90
2019-04-25T01:31:56.366Z,99.90
2019-04-25T01:34:53.703Z,99.90
2019-04-25T01:37:47.494Z,99.90
2019-04-25T01:40:48.117Z,99.90
2019-04-25T01:43:59.673Z,99.90
2019-04-25T01:46:45.262Z,99.90
2019-04-25T01:49:30.634Z,99.90
2019-04-25T01:52:15.728Z,99.90
2019-04-25T01:55:01.143Z,99.90
2019-04-25T01:57:46.746Z,99.90
2019-04-25T02:00:39.753Z,99.90
2019-04-25T02:03:27.159Z,99.90
2019-04-25T02:06:13.655Z,99.90
2019-04-25T02:08:59.405Z,99.90
2019-04-25T02:11:54.740Z,99.90
2019-04-25T02:14:41.386Z,99.90
2019-04-25T02:17:26.303Z,99.90
2019-04-25T02:20:11.622Z,99.90
2019-04-25T02:22:57.848Z,99.90
2019-04-25T02:25:44.256Z,99.90
2019-04-25T02:28:30.191Z,99.90
2019-04-25T02:31:18.129Z,99.90
2019-04-25T02:34:03.607Z,99.90
2019-04-25T02:36:49.307Z,99.90
2019-04-25T02:39:36.734Z,99.90
2019-04-25T02:42:24.391Z,99.90
2019-04-25T02:45:37.619Z,99.90
2019-04-25T02:48:44.018Z,99.90
2019-04-25T02:51:46.331Z,99.90
2019-04-25T02:54:31.394Z,99.90
2019-04-25T02:57:16.662Z,99.90
2019-04-25T03:00:03.599Z,99.90
2019-04-25T03:02:49.215Z,99.90
2019-04-25T03:05:35.419Z,99.90
2019-04-25T03:08:21.063Z,99.90
2019-04-25T03:11:07.530Z,99.90
2019-04-25T03:13:54.665Z,99.90
2019-04-25T03:16:39.472Z,99.90
2019-04-25T03:19:34.117Z,99.90
2019-04-25T03:22:26.386Z,99.90
2019-04-25T03:25:13.514Z,99.90
2019-04-25T03:27:57.378Z,99.90
2019-04-25T03:30:44.890Z,99.90
2019-04-25T03:33:29.722Z,99.90
2019-04-25T03:36:16.952Z,99.90
2019-04-25T03:39:05.244Z,99.90
2019-04-25T03:41:50.405Z,99.90
2019-04-25T03:44:35.910Z,99.90
2019-04-25T03:47:21.606Z,99.90
2019-04-25T03:50:07.975Z,99.90
2019-04-25T03:52:54.059Z,99.90
2019-04-25T03:55:39.746Z,99.90
2019-04-25T03:58:24.978Z,99.90
2019-04-25T04:01:11.000Z,99.90
2019-04-25T04:03:55.910Z,99.90
2019-04-25T04:06:40.818Z,99.90
2019-04-25T04:09:25.888Z,99.90
2019-04-25T04:12:12.253Z,99.90
2019-04-25T04:14:57.957Z,99.90
2019-04-25T04:17:50.387Z,99.90
2019-04-25T04:20:51.218Z,99.90
2019-04-25T04:23:43.442Z,99.90
2019-04-25T04:26:28.715Z,99.90
2019-04-25T04:29:15.158Z,99.90
2019-04-25T04:32:00.430Z,99.90
2019-04-25T04:34:45.828Z,99.90
2019-04-25T04:37:30.814Z,99.90
2019-04-25T04:40:17.108Z,99.90
2019-04-25T04:43:04.426Z,99.90
2019-04-25T04:45:50.207Z,99.90
2019-04-25T04:48:35.438Z,99.90
2019-04-25T04:51:20.421Z,99.90
2019-04-25T04:54:06.123Z,99.90
2019-04-25T04:56:51.800Z,99.90
2019-04-25T04:59:37.038Z,99.90
2019-04-25T05:02:30.591Z,99.90
2019-04-25T05:05:23.542Z,99.90
2019-04-25T05:08:17.306Z,99.90
2019-04-25T05:11:03.970Z,99.90
2019-04-25T05:13:49.502Z,99.90
2019-04-25T05:16:34.373Z,99.90
2019-04-25T05:19:19.935Z,99.90
2019-04-25T05:22:05.203Z,99.90
2019-04-25T05:24:50.674Z,99.90
2019-04-25T05:27:50.831Z,99.90
2019-04-25T05:30:30.014Z,99.90
2019-04-25T05:33:18.515Z,99.90
2019-04-25T05:36:03.738Z,99.90
2019-04-25T05:38:49.726Z,99.90
2019-04-25T05:41:41.094Z,99.90
2019-04-25T05:44:27.349Z,99.90
2019-04-25T05:47:15.077Z,99.90
2019-04-25T05:50:00.718Z,99.90
2019-04-25T05:52:46.186Z,99.90
2019-04-25T05:55:31.427Z,99.90
2019-04-25T05:58:16.923Z,99.90
2019-04-25T06:01:03.382Z,99.90
2019-04-25T06:03:48.357Z,99.90
2019-04-25T06:06:36.669Z,99.90
2019-04-25T06:09:40.545Z,99.90
2019-04-25T06:12:44.419Z,99.90
2019-04-25T06:15:30.086Z,99.90
2019-04-25T06:18:28.340Z,99.90
2019-04-25T06:21:13.753Z,99.90
2019-04-25T06:24:23.662Z,99.90
2019-04-25T06:27:28.604Z,99.90
2019-04-25T06:30:22.607Z,99.90
2019-04-25T06:33:09.658Z,99.90
2019-04-25T06:35:56.762Z,99.90
2019-04-25T06:38:41.899Z,99.90
2019-04-25T06:41:28.189Z,99.90
2019-04-25T06:44:29.734Z,99.30
2019-04-25T06:47:37.937Z,98.00
2019-04-25T06:50:24.247Z,95.90
2019-04-25T06:53:09.831Z,96.10
2019-04-25T06:55:55.303Z,93.30
2019-04-25T06:58:40.530Z,92.30
2019-04-25T07:01:27.435Z,92.70
2019-04-25T07:04:14.062Z,91.30
2019-04-25T07:07:09.814Z,90.90
2019-04-25T07:09:46.663Z,90.10
2019-04-25T07:12:34.168Z,85.00
2019-04-25T07:15:18.647Z,83.20
2019-04-25T07:18:03.932Z,84.90
2019-04-25T07:20:49.435Z,85.00
2019-04-25T07:23:34.722Z,84.50
2019-04-25T07:26:39.750Z,85.30
2019-04-25T07:29:34.580Z,84.10
2019-04-25T07:32:42.043Z,85.10
2019-04-25T07:35:27.254Z,81.00
2019-04-25T07:38:13.942Z,77.20
2019-04-25T07:40:59.301Z,74.80
2019-04-25T07:43:44.334Z,71.60
2019-04-25T07:46:29.805Z,69.20
2019-04-25T07:49:15.455Z,69.10
2019-04-25T07:52:01.153Z,64.90
2019-04-25T07:54:46.730Z,64.80
2019-04-25T07:57:33.546Z,62.10
2019-04-25T08:00:19.935Z,63.10
2019-04-25T08:03:05.773Z,60.60
2019-04-25T08:05:50.831Z,58.80
2019-04-25T08:08:36.100Z,57.80
2019-04-25T08:11:21.659Z,57.30
2019-04-25T08:14:17.866Z,57.40
2019-04-25T08:17:03.827Z,58.90
2019-04-25T08:19:57.214Z,59.80
2019-04-25T08:22:52.954Z,58.60
2019-04-25T08:25:30.816Z,59.10
2019-04-25T08:28:15.913Z,56.70
2019-04-25T08:31:01.027Z,58.30
2019-04-25T08:33:46.721Z,55.70
2019-04-25T08:36:33.816Z,56.10
2019-04-25T08:39:19.294Z,56.70
2019-04-25T08:42:04.547Z,54.40
2019-04-25T08:44:50.025Z,53.20
2019-04-25T08:47:36.173Z,53.90
2019-04-25T08:50:50.631Z,54.70
2019-04-25T08:53:44.944Z,54.00
2019-04-25T08:56:34.242Z,52.50
2019-04-25T08:59:42.563Z,49.60
2019-04-25T09:02:48.206Z,49.10
2019-04-25T09:05:37.777Z,51.30
2019-04-25T09:08:24.582Z,47.80
2019-04-25T09:11:09.433Z,48.70
2019-04-25T09:13:54.915Z,46.40
2019-04-25T09:16:40.055Z,44.60
2019-04-25T09:19:25.390Z,47.50
2019-04-25T09:22:10.927Z,48.30
2019-04-25T09:24:56.267Z,45.50
2019-04-25T09:27:41.973Z,44.30
2019-04-25T09:30:28.208Z,43.80
2019-04-25T09:33:13.642Z,45.70
2019-04-25T09:35:58.410Z,44.90
2019-04-25T09:38:46.975Z,41.30
2019-04-25T09:41:31.388Z,42.90
2019-04-25T09:44:19.391Z,42.50
2019-04-25T09:47:04.523Z,41.50
2019-04-25T09:49:50.134Z,39.40
2019-04-25T09:52:36.099Z,39.10
2019-04-25T09:55:30.731Z,42.00
2019-04-25T09:58:29.306Z,39.90
2019-04-25T10:01:14.896Z,38.90
2019-04-25T10:04:00.130Z,38.50
2019-04-25T10:06:46.024Z,39.40
2019-04-25T10:09:31.470Z,39.00
2019-04-25T10:12:16.873Z,36.90
2019-04-25T10:15:21.809Z,36.80
2019-04-25T10:18:06.942Z,37.40
2019-04-25T10:20:52.024Z,37.40
2019-04-25T10:23:38.273Z,40.20
2019-04-25T10:26:25.060Z,38.80
2019-04-25T10:29:11.000Z,37.90
2019-04-25T10:31:56.671Z,40.40
2019-04-25T10:34:44.849Z,39.00
2019-04-25T10:37:35.353Z,37.20
2019-04-25T10:40:23.385Z,36.30
2019-04-25T10:43:09.323Z,36.20
2019-04-25T10:45:55.129Z,38.10
2019-04-25T10:48:40.267Z,38.70
2019-04-25T10:51:25.347Z,37.70
2019-04-25T10:54:10.723Z,37.90
2019-04-25T10:56:56.173Z,36.70
2019-04-25T10:59:54.558Z,37.90
2019-04-25T11:02:28.526Z,37.50
2019-04-25T11:05:15.030Z,38.30
2019-04-25T11:08:00.426Z,35.10
2019-04-25T11:10:47.497Z,35.90
2019-04-25T11:13:35.389Z,35.70
2019-04-25T11:16:21.143Z,35.90
2019-04-25T11:19:06.411Z,37.50
2019-04-25T11:21:51.773Z,37.60
2019-04-25T11:24:37.650Z,36.20
2019-04-25T11:27:23.946Z,35.50
2019-04-25T11:30:11.533Z,35.00
2019-04-25T11:32:58.121Z,35.20
2019-04-25T11:35:46.467Z,38.40
2019-04-25T11:38:38.495Z,35.90
2019-04-25T11:41:24.368Z,35.50
2019-04-25T11:44:09.617Z,35.50
2019-04-25T11:46:54.874Z,34.90
2019-04-25T11:49:40.435Z,35.80
2019-04-25T11:52:28.412Z,34.70
2019-04-25T11:55:14.320Z,35.10
2019-04-25T11:58:00.041Z,36.10
2019-04-25T12:00:46.002Z,35.70
2019-04-25T12:03:31.690Z,36.40
2019-04-25T12:06:17.217Z,36.80
2019-04-25T12:09:04.020Z,38.20
2019-04-25T12:11:49.978Z,38.80
2019-04-25T12:14:35.101Z,35.10
2019-04-25T12:17:20.310Z,35.90
2019-04-25T12:20:06.071Z,35.50
2019-04-25T12:23:03.375Z,35.30
2019-04-25T12:25:38.243Z,36.80
2019-04-25T12:28:23.596Z,36.90
2019-04-25T12:31:08.727Z,36.60
2019-04-25T12:33:55.214Z,36.90
2019-04-25T12:36:41.318Z,37.10
2019-04-25T12:39:26.667Z,37.50
2019-04-25T12:42:11.862Z,37.60
2019-04-25T12:45:15.474Z,36.00
2019-04-25T12:48:00.982Z,36.60
2019-04-25T12:50:47.737Z,38.30
2019-04-25T12:53:33.426Z,36.40
2019-04-25T12:56:20.441Z,35.70
2019-04-25T12:59:05.681Z,36.40
2019-04-25T13:01:50.790Z,36.50
2019-04-25T13:04:36.122Z,36.00
2019-04-25T13:07:21.227Z,36.80
2019-04-25T13:10:07.363Z,36.60
2019-04-25T13:12:55.259Z,36.20
2019-04-25T13:15:39.851Z,36.50
2019-04-25T13:18:25.175Z,34.80
2019-04-25T13:21:10.647Z,34.90
2019-04-25T13:23:56.707Z,36.20
2019-04-25T13:26:48.824Z,36.90
2019-04-25T13:29:59.666Z,35.70
2019-04-25T13:33:00.087Z,36.90
2019-04-25T13:35:52.207Z,36.20
2019-04-25T13:38:37.314Z,35.40
2019-04-25T13:41:22.457Z,34.90
2019-04-25T13:44:07.654Z,34.50
2019-04-25T13:46:53.308Z,34.10
2019-04-25T13:49:39.002Z,34.80
2019-04-25T13:52:25.060Z,34.90
2019-04-25T13:55:10.468Z,38.10
2019-04-25T13:57:55.835Z,36.50
2019-04-25T14:00:40.837Z,36.10
2019-04-25T14:03:27.237Z,36.80
2019-04-25T14:06:13.644Z,36.40
2019-04-25T14:08:59.370Z,37.00
2019-04-25T14:11:44.841Z,37.30
2019-04-25T14:14:30.232Z,39.00
2019-04-25T14:17:26.122Z,37.50
2019-04-25T14:20:19.381Z,39.50
2019-04-25T14:23:06.095Z,38.20
2019-04-25T14:25:51.275Z,39.80
2019-04-25T14:28:36.198Z,38.10
2019-04-25T14:31:33.809Z,40.30
2019-04-25T14:34:08.682Z,39.10
2019-04-25T14:36:54.597Z,39.70
2019-04-25T14:39:40.251Z,40.70
2019-04-25T14:42:25.111Z,40.40
2019-04-25T14:45:10.990Z,40.10
2019-04-25T14:47:56.049Z,40.00
2019-04-25T14:50:41.635Z,38.70
2019-04-25T14:53:26.894Z,40.10
2019-04-25T14:56:28.827Z,40.70
2019-04-25T14:59:14.033Z,39.90
2019-04-25T15:01:59.382Z,38.80
2019-04-25T15:04:44.574Z,39.10
2019-04-25T15:07:29.777Z,39.50
2019-04-25T15:10:14.894Z,40.10
2019-04-25T15:13:00.770Z,41.10
2019-04-25T15:15:45.818Z,42.00
2019-04-25T15:18:31.210Z,42.00
2019-04-25T15:21:18.639Z,41.10
2019-04-25T15:24:03.407Z,42.80
2019-04-25T15:26:49.429Z,42.90
2019-04-25T15:29:34.718Z,43.00
2019-04-25T15:32:22.575Z,43.40
2019-04-25T15:35:10.605Z,43.70
2019-04-25T15:38:01.706Z,44.20
2019-04-25T15:40:57.019Z,44.70
2019-04-25T15:44:02.126Z,45.00
2019-04-25T15:46:48.814Z,45.10
2019-04-25T15:49:34.429Z,44.90
2019-04-25T15:52:20.387Z,42.40
2019-04-25T15:55:07.344Z,43.60
2019-04-25T15:57:52.446Z,43.40
2019-04-25T16:00:38.371Z,42.60
2019-04-25T16:03:23.596Z,43.40
2019-04-25T16:06:08.986Z,44.30
2019-04-25T16:08:54.802Z,43.30
2019-04-25T16:11:39.389Z,42.90
2019-04-25T16:14:26.356Z,42.40
2019-04-25T16:17:11.901Z,42.70
2019-04-25T16:19:57.582Z,44.10
2019-04-25T16:22:42.801Z,42.20
2019-04-25T16:25:27.910Z,43.50
2019-04-25T16:28:13.051Z,43.80
2019-04-25T16:30:58.414Z,43.70
2019-04-25T16:33:43.710Z,44.50
2019-04-25T16:36:29.537Z,44.80
2019-04-25T16:39:20.294Z,45.60
2019-04-25T16:42:05.858Z,45.60
2019-04-25T16:44:50.719Z,45.10
2019-04-25T16:47:37.319Z,45.60
2019-04-25T16:50:23.754Z,46.20
2019-04-25T16:53:08.947Z,46.30
2019-04-25T16:55:54.029Z,47.20
2019-04-25T16:58:39.339Z,46.70
2019-04-25T17:01:25.109Z,47.50
2019-04-25T17:04:10.467Z,47.40
2019-04-25T17:06:55.540Z,47.40
2019-04-25T17:09:40.813Z,47.00
2019-04-25T17:12:26.906Z,47.50
2019-04-25T17:15:20.809Z,47.60
2019-04-25T17:18:10.438Z,47.50
2019-04-25T17:21:04.325Z,47.70
2019-04-25T17:23:50.017Z,48.90
2019-04-25T17:26:35.118Z,48.30
2019-04-25T17:29:20.065Z,48.50
2019-04-25T17:32:15.105Z,48.90
2019-04-25T17:35:10.784Z,48.80
2019-04-25T17:38:00.119Z,49.90
2019-04-25T17:40:45.340Z,50.80
2019-04-25T17:43:31.992Z,51.60
2019-04-25T17:46:19.942Z,51.80
2019-04-25T17:49:05.443Z,52.20
2019-04-25T17:51:50.814Z,53.20
2019-04-25T17:54:36.665Z,53.40
2019-04-25T17:57:22.279Z,54.20
2019-04-25T18:00:10.382Z,54.30
2019-04-25T18:02:59.044Z,54.40
2019-04-25T18:05:44.081Z,54.70
2019-04-25T18:08:29.464Z,55.20
2019-04-25T18:11:14.654Z,55.00
2019-04-25T18:14:00.114Z,54.90
2019-04-25T18:16:46.566Z,54.70
2019-04-25T18:19:38.865Z,55.20
2019-04-25T18:22:59.022Z,55.00
2019-04-25T18:26:03.958Z,55.30
2019-04-25T18:28:55.711Z,55.40
2019-04-25T18:31:41.619Z,55.30
2019-04-25T18:34:32.522Z,54.90
2019-04-25T18:37:37.183Z,55.20
2019-04-25T18:40:31.714Z,55.20
2019-04-25T18:43:25.189Z,54.90
2019-04-25T18:46:15.889Z,55.20
2019-04-25T18:49:00.843Z,54.90
2019-04-25T18:51:56.469Z,55.00
2019-04-25T18:54:43.147Z,54.50
2019-04-25T18:57:37.414Z,54.70
2019-04-25T19:00:34.967Z,54.80
2019-04-25T19:03:50.190Z,54.60
2019-04-25T19:06:35.490Z,55.00
2019-04-25T19:09:21.374Z,54.90
2019-04-25T19:12:06.811Z,54.50
2019-04-25T19:14:52.219Z,54.50
2019-04-25T19:17:37.590Z,54.70
2019-04-25T19:20:23.166Z,54.90
2019-04-25T19:23:08.422Z,54.30
2019-04-25T19:25:53.214Z,54.30
2019-04-25T19:28:38.495Z,54.50
2019-04-25T19:31:25.123Z,54.60
2019-04-25T19:34:10.333Z,54.90
2019-04-25T19:36:56.005Z,54.60
2019-04-25T19:39:45.238Z,55.20
2019-04-25T19:42:35.142Z,54.60
2019-04-25T19:45:20.203Z,54.80
2019-04-25T19:48:05.539Z,54.40
2019-04-25T19:50:51.136Z,54.50
2019-04-25T19:53:36.422Z,55.00
2019-04-25T19:56:21.903Z,55.20
2019-04-25T19:59:07.035Z,55.10
2019-04-25T20:01:54.290Z,55.00
2019-04-25T20:04:53.521Z,55.40
2019-04-25T20:07:46.570Z,55.80
2019-04-25T20:10:38.439Z,55.80
2019-04-25T20:13:24.650Z,55.90
2019-04-25T20:16:10.712Z,56.30
2019-04-25T20:18:56.489Z,56.10
2019-04-25T20:21:41.759Z,56.70
2019-04-25T20:24:27.537Z,56.90
2019-04-25T20:27:13.114Z,56.60
2019-04-25T20:29:58.906Z,56.70
2019-04-25T20:32:44.730Z,56.80
2019-04-25T20:35:31.463Z,57.00
2019-04-25T20:38:17.063Z,57.20
2019-04-25T20:41:01.944Z,57.70
2019-04-25T20:43:47.551Z,57.60
2019-04-25T20:46:33.139Z,57.50
2019-04-25T20:49:18.343Z,57.60
2019-04-25T20:52:03.508Z,57.90
2019-04-25T20:54:48.896Z,57.50
2019-04-25T20:57:34.662Z,57.50
2019-04-25T21:00:36.021Z,57.40
2019-04-25T21:03:21.523Z,57.50
2019-04-25T21:06:13.276Z,57.40
2019-04-25T21:08:58.314Z,57.40
2019-04-25T21:11:43.447Z,57.50
2019-04-25T21:14:36.362Z,57.70
2019-04-25T21:17:28.074Z,57.60
2019-04-25T21:20:13.083Z,57.90
2019-04-25T21:22:58.334Z,57.90
2019-04-25T21:25:43.991Z,57.90
2019-04-25T21:28:29.335Z,57.80
2019-04-25T21:31:14.881Z,58.00
2019-04-25T21:33:59.837Z,58.40
2019-04-25T21:36:45.430Z,58.70
2019-04-25T21:39:47.614Z,59.30
2019-04-25T21:42:46.142Z,59.10
2019-04-25T21:45:31.770Z,59.50
2019-04-25T21:48:17.327Z,59.60
2019-04-25T21:51:22.127Z,59.50
2019-04-25T21:54:06.925Z,59.60
2019-04-25T21:56:53.312Z,59.50
2019-04-25T21:59:40.018Z,59.70
2019-04-25T22:02:25.866Z,59.90
2019-04-25T22:05:11.407Z,59.90
2019-04-25T22:07:57.180Z,60.40
2019-04-25T22:10:43.186Z,60.80
2019-04-25T22:13:28.510Z,61.40
2019-04-25T22:16:13.949Z,61.80
2019-04-25T22:19:00.135Z,62.30
2019-04-25T22:21:45.187Z,62.10
2019-04-25T22:24:30.814Z,62.80
2019-04-25T22:27:21.854Z,63.00
2019-04-25T22:30:09.010Z,63.30
2019-04-25T22:33:03.730Z,63.10
2019-04-25T22:35:52.875Z,63.60
2019-04-25T22:38:38.218Z,63.70
2019-04-25T22:41:23.514Z,63.40
2019-04-25T22:44:10.916Z,63.80
2019-04-25T22:46:57.734Z,64.30
2019-04-25T22:49:42.636Z,64.30
2019-04-25T22:52:28.269Z,64.80
2019-04-25T22:55:13.819Z,64.40
2019-04-25T22:57:59.199Z,64.60
2019-04-25T23:00:44.455Z,65.20
2019-04-25T23:03:36.818Z,65.10
2019-04-25T23:06:22.395Z,65.00
2019-04-25T23:09:08.163Z,65.10
2019-04-25T23:11:53.228Z,65.20
2019-04-25T23:14:38.442Z,65.30
2019-04-25T23:17:23.933Z,65.60
2019-04-25T23:20:09.656Z,65.50
2019-04-25T23:22:55.234Z,65.70
2019-04-25T23:26:01.562Z,65.80
2019-04-25T23:28:47.470Z,65.80
2019-04-25T23:31:33.454Z,66.20
2019-04-25T23:34:18.705Z,66.60
2019-04-25T23:37:03.547Z,66.80
2019-04-25T23:39:50.288Z,66.70
2019-04-25T23:42:36.175Z,66.70
2019-04-25T23:45:21.513Z,66.70
2019-04-25T23:48:07.324Z,67.20
2019-04-25T23:50:53.683Z,67.20
2019-04-25T23:53:39.803Z,67.00
2019-04-25T23:56:25.183Z,67.20
2019-04-25T23:59:11.570Z,67.40
